createdAt,value
2018-09-26T00:00:24.868Z,18.4
2018-09-26T00:01:14.627Z,18.4
2018-09-26T00:02:03.885Z,18.4
2018-09-26T00:02:53.950Z,18.3
2018-09-26T00:03:43.997Z,18.3
2018-09-26T00:04:34.082Z,18.3
2018-09-26T00:05:24.732Z,18.3
2018-09-26T00:06:14.236Z,18.3
2018-09-26T00:07:05.083Z,18.3
2018-09-26T00:07:54.774Z,18.3
2018-09-26T00:08:44.670Z,18.3
2018-09-26T00:09:35.590Z,18.3
2018-09-26T00:10:24.997Z,18.3
2018-09-26T00:11:14.864Z,18.3
2018-09-26T00:12:05.361Z,18.3
2018-09-26T00:12:55.217Z,18.3
2018-09-26T00:13:44.742Z,18.3
2018-09-26T00:14:35.035Z,18.3
2018-09-26T00:15:25.484Z,18.3
2018-09-26T00:16:15.243Z,18.3
2018-09-26T00:17:04.985Z,18.3
2018-09-26T00:17:54.999Z,18.3
2018-09-26T00:18:45.197Z,18.3
2018-09-26T00:19:35.726Z,18.3
2018-09-26T00:20:24.742Z,18.3
2018-09-26T00:21:14.848Z,18.3
2018-09-26T00:22:05.371Z,18.3
2018-09-26T00:22:55.216Z,18.3
2018-09-26T00:23:45.473Z,18.3
2018-09-26T00:24:35.089Z,18.3
2018-09-26T00:25:26.216Z,18.3
2018-09-26T00:26:15.513Z,18.3
2018-09-26T00:27:05.789Z,18.3
2018-09-26T00:27:55.295Z,18.3
2018-09-26T00:28:46.491Z,18.3
2018-09-26T00:29:36.529Z,18.3
2018-09-26T00:30:26.628Z,18.3
2018-09-26T00:31:16.693Z,18.3
2018-09-26T00:32:06.234Z,18.3
2018-09-26T00:32:55.941Z,18.3
2018-09-26T00:33:46.578Z,18.3
2018-09-26T00:34:36.379Z,18.3
2018-09-26T00:35:26.982Z,18.3
2018-09-26T00:36:18.139Z,18.3
2018-09-26T00:55:29.983Z,18.1
2018-09-26T00:56:20.477Z,18.1
2018-09-26T00:57:09.512Z,18.1
2018-09-26T00:58:00.085Z,18.2
2018-09-26T00:58:49.649Z,18.1
2018-09-26T00:59:40.213Z,18.2
2018-09-26T01:00:32.361Z,18.2
2018-09-26T01:01:21.171Z,18.2
2018-09-26T01:02:10.961Z,18.2
2018-09-26T01:03:00.735Z,18.2
2018-09-26T01:03:50.769Z,18.2
2018-09-26T01:04:40.532Z,18.2
2018-09-26T01:05:32.078Z,18.1
2018-09-26T01:06:20.452Z,18.1
2018-09-26T01:07:11.097Z,18.1
2018-09-26T01:08:01.661Z,18.1
2018-09-26T01:08:51.430Z,18.1
2018-09-26T01:09:41.815Z,18.1
2018-09-26T01:10:31.537Z,18.1
2018-09-26T01:11:21.925Z,18.1
2018-09-26T01:12:11.537Z,18.1
2018-09-26T01:13:01.524Z,18.1
2018-09-26T01:13:51.728Z,18.1
2018-09-26T01:14:41.863Z,18.1
2018-09-26T01:15:31.601Z,18.1
2018-09-26T01:16:22.866Z,18.1
2018-09-26T01:17:12.094Z,18.1
2018-09-26T01:18:02.129Z,18.1
2018-09-26T01:18:52.204Z,18.1
2018-09-26T01:19:42.521Z,18.1
2018-09-26T01:20:32.766Z,18.1
2018-09-26T01:21:21.811Z,18.1
2018-09-26T01:22:12.692Z,18.1
2018-09-26T01:23:02.225Z,18.1
2018-09-26T01:23:52.233Z,18.1
2018-09-26T01:24:43.137Z,18.1
2018-09-26T01:25:33.320Z,18.1
2018-09-26T01:26:23.081Z,18.1
2018-09-26T01:27:12.525Z,18.1
2018-09-26T01:28:02.690Z,18.1
2018-09-26T01:28:52.600Z,18.1
2018-09-26T01:29:43.537Z,18.1
2018-09-26T01:30:32.775Z,18.1
2018-09-26T01:31:23.648Z,18.1
2018-09-26T01:32:13.077Z,18.1
2018-09-26T01:33:02.392Z,18.1
2018-09-26T01:33:53.290Z,18.1
2018-09-26T01:34:43.312Z,18.1
2018-09-26T01:35:33.652Z,18.1
2018-09-26T01:36:24.017Z,18.1
2018-09-26T01:37:13.874Z,18.1
2018-09-26T01:38:03.317Z,18.1
2018-09-26T01:38:53.363Z,18.1
2018-09-26T01:39:43.732Z,18.1
2018-09-26T01:40:32.939Z,18.1
2018-09-26T01:41:24.022Z,18.1
2018-09-26T01:42:14.202Z,18.1
2018-09-26T01:43:04.521Z,18.1
2018-09-26T01:43:53.204Z,18.1
2018-09-26T01:44:43.255Z,18.1
2018-09-26T01:45:33.847Z,18.1
2018-09-26T01:46:23.952Z,18.1
2018-09-26T01:47:14.807Z,18.1
2018-09-26T01:48:03.577Z,18.1
2018-09-26T01:48:54.113Z,18.1
2018-09-26T01:49:44.156Z,18.1
2018-09-26T01:50:34.496Z,18.1
2018-09-26T01:51:24.687Z,18.1
2018-09-26T01:52:14.574Z,18.1
2018-09-26T01:53:04.734Z,18.1
2018-09-26T01:53:54.719Z,18
2018-09-26T01:54:44.819Z,18
2018-09-26T01:55:35.220Z,18
2018-09-26T01:56:24.457Z,18
2018-09-26T01:57:15.598Z,18
2018-09-26T01:58:05.137Z,18
2018-09-26T01:58:55.417Z,18
2018-09-26T01:59:45.488Z,18
2018-09-26T02:00:34.949Z,18
2018-09-26T02:01:25.327Z,18
2018-09-26T02:02:15.168Z,18
2018-09-26T02:03:05.945Z,18
2018-09-26T02:03:55.526Z,18
2018-09-26T02:04:45.043Z,18
2018-09-26T02:05:35.094Z,18
2018-09-26T02:06:25.690Z,18
2018-09-26T02:07:15.721Z,18
2018-09-26T02:08:06.629Z,18
2018-09-26T02:08:55.348Z,18
2018-09-26T02:09:45.950Z,18
2018-09-26T02:10:36.015Z,18
2018-09-26T02:11:24.671Z,18
2018-09-26T02:12:16.386Z,18
2018-09-26T02:13:06.144Z,18
2018-09-26T02:13:56.988Z,18
2018-09-26T02:14:46.832Z,18
2018-09-26T02:15:36.672Z,18
2018-09-26T02:16:26.370Z,18
2018-09-26T02:17:16.713Z,18
2018-09-26T02:18:06.592Z,18
2018-09-26T02:18:55.858Z,18
2018-09-26T02:19:46.375Z,17.9
2018-09-26T02:20:36.200Z,18
2018-09-26T02:21:27.074Z,17.9
2018-09-26T02:22:17.117Z,18
2018-09-26T02:23:06.094Z,17.9
2018-09-26T02:23:57.289Z,17.9
2018-09-26T02:24:47.312Z,18
2018-09-26T02:25:37.069Z,17.9
2018-09-26T02:26:27.162Z,17.9
2018-09-26T02:27:17.231Z,17.9
2018-09-26T02:28:07.054Z,17.9
2018-09-26T02:28:58.249Z,17.9
2018-09-26T02:29:47.674Z,17.9
2018-09-26T02:30:37.266Z,17.9
2018-09-26T02:31:26.764Z,17.9
2018-09-26T02:32:17.051Z,17.9
2018-09-26T02:33:07.729Z,17.9
2018-09-26T02:33:58.088Z,17.9
2018-09-26T02:34:47.503Z,17.9
2018-09-26T02:35:38.408Z,17.9
2018-09-26T02:36:27.875Z,17.9
2018-09-26T02:37:18.549Z,17.9
2018-09-26T02:38:08.506Z,17.9
2018-09-26T02:38:58.325Z,17.9
2018-09-26T02:39:48.240Z,17.9
2018-09-26T02:40:37.944Z,17.9
2018-09-26T02:41:27.470Z,17.9
2018-09-26T02:42:17.761Z,17.9
2018-09-26T02:43:07.698Z,17.9
2018-09-26T02:43:58.814Z,17.9
2018-09-26T02:44:48.509Z,17.9
2018-09-26T02:45:38.908Z,17.9
2018-09-26T02:46:29.193Z,17.9
2018-09-26T02:47:18.726Z,17.9
2018-09-26T02:48:09.369Z,17.9
2018-09-26T02:48:59.387Z,17.9
2018-09-26T02:49:48.742Z,17.9
2018-09-26T02:50:38.968Z,17.9
2018-09-26T02:51:28.980Z,17.9
2018-09-26T02:52:18.809Z,17.9
2018-09-26T02:53:09.673Z,17.9
2018-09-26T02:53:59.442Z,17.9
2018-09-26T02:54:48.384Z,17.9
2018-09-26T02:55:39.579Z,17.9
2018-09-26T02:56:28.861Z,17.9
2018-09-26T02:57:19.758Z,17.9
2018-09-26T02:58:08.758Z,17.9
2018-09-26T02:58:59.295Z,17.9
2018-09-26T02:59:49.687Z,17.9
2018-09-26T03:00:40.055Z,17.9
2018-09-26T03:01:29.183Z,17.9
2018-09-26T03:02:20.135Z,17.9
2018-09-26T03:03:09.580Z,17.9
2018-09-26T03:04:00.840Z,17.9
2018-09-26T03:04:50.019Z,17.9
2018-09-26T03:05:40.411Z,17.9
2018-09-26T03:06:29.577Z,17.9
2018-09-26T03:07:19.073Z,17.9
2018-09-26T03:08:09.717Z,17.9
2018-09-26T03:09:00.359Z,17.9
2018-09-26T03:09:50.632Z,17.9
2018-09-26T03:10:39.657Z,17.9
2018-09-26T03:11:29.942Z,17.9
2018-09-26T03:12:19.391Z,17.9
2018-09-26T03:13:10.359Z,17.9
2018-09-26T03:14:01.815Z,17.9
2018-09-26T03:14:51.069Z,17.9
2018-09-26T03:15:41.504Z,17.9
2018-09-26T03:16:29.754Z,17.9
2018-09-26T03:17:20.376Z,17.9
2018-09-26T03:18:10.970Z,17.9
2018-09-26T03:19:01.402Z,17.9
2018-09-26T03:19:50.950Z,17.9
2018-09-26T03:20:41.184Z,17.9
2018-09-26T03:21:30.934Z,17.9
2018-09-26T03:22:21.586Z,17.9
2018-09-26T03:23:10.793Z,17.9
2018-09-26T03:24:01.985Z,17.9
2018-09-26T03:24:51.931Z,17.9
2018-09-26T03:25:42.427Z,17.9
2018-09-26T03:26:31.333Z,17.9
2018-09-26T03:27:21.918Z,17.9
2018-09-26T03:28:11.989Z,17.9
2018-09-26T03:29:00.758Z,17.9
2018-09-26T03:29:51.376Z,17.9
2018-09-26T03:30:41.598Z,17.9
2018-09-26T03:31:30.941Z,17.8
2018-09-26T03:32:21.393Z,17.9
2018-09-26T03:33:11.065Z,17.9
2018-09-26T03:34:01.931Z,17.8
2018-09-26T03:34:51.720Z,17.9
2018-09-26T03:35:42.578Z,17.9
2018-09-26T03:36:32.885Z,17.8
2018-09-26T03:37:22.402Z,17.9
2018-09-26T03:38:11.641Z,17.9
2018-09-26T03:39:02.543Z,17.8
2018-09-26T03:39:52.024Z,17.9
2018-09-26T03:40:42.671Z,17.9
2018-09-26T03:41:33.272Z,17.9
2018-09-26T03:42:22.207Z,17.8
2018-09-26T03:43:12.826Z,17.9
2018-09-26T03:44:03.452Z,17.9
2018-09-26T03:44:52.391Z,17.8
2018-09-26T03:45:42.450Z,17.8
2018-09-26T03:46:33.427Z,17.8
2018-09-26T03:47:23.740Z,17.8
2018-09-26T03:48:13.438Z,17.8
2018-09-26T03:49:02.991Z,17.8
2018-09-26T03:49:52.514Z,17.8
2018-09-26T03:50:43.663Z,17.8
2018-09-26T03:51:33.712Z,17.8
2018-09-26T03:52:23.518Z,17.8
2018-09-26T03:53:13.037Z,17.8
2018-09-26T03:54:03.352Z,17.8
2018-09-26T03:54:53.075Z,17.8
2018-09-26T03:55:43.940Z,17.8
2018-09-26T03:56:33.864Z,17.8
2018-09-26T03:57:24.176Z,17.8
2018-09-26T03:58:14.225Z,17.8
2018-09-26T03:59:04.327Z,17.8
2018-09-26T03:59:53.169Z,17.8
2018-09-26T04:00:43.579Z,17.8
2018-09-26T04:01:34.716Z,17.8
2018-09-26T04:02:24.293Z,17.8
2018-09-26T04:03:14.348Z,17.8
2018-09-26T04:04:05.018Z,17.8
2018-09-26T04:04:54.897Z,17.8
2018-09-26T04:05:45.036Z,17.8
2018-09-26T04:06:34.591Z,17.8
2018-09-26T04:07:24.856Z,17.8
2018-09-26T04:08:14.623Z,17.8
2018-09-26T04:09:04.804Z,17.8
2018-09-26T04:09:54.783Z,17.8
2018-09-26T04:10:43.875Z,17.8
2018-09-26T04:11:33.575Z,17.8
2018-09-26T04:12:24.769Z,17.8
2018-09-26T04:13:15.705Z,17.8
2018-09-26T04:14:04.892Z,17.8
2018-09-26T04:14:55.166Z,17.8
2018-09-26T04:15:46.681Z,17.8
2018-09-26T04:16:35.317Z,17.8
2018-09-26T04:17:25.130Z,17.8
2018-09-26T04:18:15.147Z,17.8
2018-09-26T04:19:05.495Z,17.8
2018-09-26T04:19:54.424Z,17.8
2018-09-26T04:20:45.692Z,17.8
2018-09-26T04:21:35.092Z,17.8
2018-09-26T04:22:25.762Z,17.8
2018-09-26T04:23:15.742Z,17.8
2018-09-26T04:24:05.598Z,17.8
2018-09-26T04:24:55.052Z,17.8
2018-09-26T04:25:46.557Z,17.7
2018-09-26T04:26:38.990Z,17.7
2018-09-26T04:27:28.403Z,17.7
2018-09-26T04:28:15.927Z,17.7
2018-09-26T04:29:06.304Z,17.7
2018-09-26T04:29:57.293Z,17.7
2018-09-26T04:30:47.061Z,17.8
2018-09-26T04:31:36.924Z,17.7
2018-09-26T04:32:26.461Z,17.8
2018-09-26T04:33:22.889Z,17.8
2018-09-26T04:34:07.347Z,17.7
2018-09-26T04:34:56.396Z,17.7
2018-09-26T04:35:47.018Z,17.7
2018-09-26T04:36:37.522Z,17.8
2018-09-26T04:37:27.259Z,17.7
2018-09-26T04:38:16.557Z,17.7
2018-09-26T04:39:06.446Z,17.7
2018-09-26T04:39:57.251Z,17.7
2018-09-26T04:40:45.625Z,17.7
2018-09-26T04:41:37.706Z,17.7
2018-09-26T04:42:27.236Z,17.7
2018-09-26T04:43:18.672Z,17.7
2018-09-26T04:44:07.008Z,17.7
2018-09-26T04:44:57.373Z,17.7
2018-09-26T04:45:46.823Z,17.7
2018-09-26T04:46:38.201Z,17.7
2018-09-26T04:47:27.543Z,17.7
2018-09-26T04:48:18.116Z,17.7
2018-09-26T04:49:07.685Z,17.7
2018-09-26T04:49:58.041Z,17.6
2018-09-26T04:50:47.781Z,17.7
2018-09-26T04:51:37.255Z,17.6
2018-09-26T04:52:27.620Z,17.6
2018-09-26T04:53:17.901Z,17.6
2018-09-26T04:54:08.680Z,17.6
2018-09-26T04:54:57.610Z,17.6
2018-09-26T04:55:47.902Z,17.6
2018-09-26T04:56:37.998Z,17.6
2018-09-26T04:57:28.548Z,17.6
2018-09-26T04:58:18.556Z,17.6
2018-09-26T04:59:07.665Z,17.6
2018-09-26T04:59:57.555Z,17.6
2018-09-26T05:00:48.152Z,17.6
2018-09-26T05:01:38.282Z,17.6
2018-09-26T05:02:28.487Z,17.6
2018-09-26T05:03:18.492Z,17.6
2018-09-26T05:04:08.222Z,17.6
2018-09-26T05:04:58.090Z,17.6
2018-09-26T05:05:48.170Z,17.6
2018-09-26T05:06:38.135Z,17.6
2018-09-26T05:07:29.356Z,17.6
2018-09-26T05:24:20.971Z,17.6
2018-09-26T05:25:10.533Z,17.6
2018-09-26T05:26:00.438Z,17.6
2018-09-26T05:26:50.709Z,17.6
2018-09-26T05:27:41.080Z,17.6
2018-09-26T05:28:30.882Z,17.6
2018-09-26T05:29:20.758Z,17.6
2018-09-26T05:30:10.687Z,17.6
2018-09-26T05:31:00.410Z,17.6
2018-09-26T05:31:51.341Z,17.6
2018-09-26T05:32:41.133Z,17.6
2018-09-26T05:33:30.668Z,17.6
2018-09-26T05:34:21.562Z,17.6
2018-09-26T05:35:11.558Z,17.6
2018-09-26T05:36:01.275Z,17.6
2018-09-26T05:36:51.733Z,17.6
2018-09-26T05:37:42.038Z,17.6
2018-09-26T05:38:31.553Z,17.6
2018-09-26T05:39:21.608Z,17.6
2018-09-26T05:40:11.965Z,17.6
2018-09-26T05:41:01.115Z,17.6
2018-09-26T05:41:53.959Z,17.6
2018-09-26T05:42:42.066Z,17.6
2018-09-26T05:43:32.460Z,17.6
2018-09-26T05:44:21.760Z,17.6
2018-09-26T05:45:12.612Z,17.6
2018-09-26T05:46:02.700Z,17.6
2018-09-26T05:46:52.596Z,17.6
2018-09-26T05:47:42.850Z,17.6
2018-09-26T05:48:32.043Z,17.6
2018-09-26T05:49:22.999Z,17.6
2018-09-26T05:50:12.522Z,17.6
2018-09-26T05:51:03.065Z,17.6
2018-09-26T05:51:52.238Z,17.6
2018-09-26T05:52:43.387Z,17.6
2018-09-26T05:53:33.233Z,17.6
2018-09-26T05:54:22.397Z,17.6
2018-09-26T05:55:13.272Z,17.6
2018-09-26T05:56:03.005Z,17.6
2018-09-26T05:56:52.351Z,17.6
2018-09-26T05:57:42.672Z,17.6
2018-09-26T05:58:31.961Z,17.6
2018-09-26T05:59:23.362Z,17.6
2018-09-26T06:00:13.885Z,17.6
2018-09-26T06:01:04.696Z,17.6
2018-09-26T06:01:54.964Z,17.6
2018-09-26T06:02:43.377Z,17.6
2018-09-26T06:03:32.569Z,17.6
2018-09-26T06:04:23.946Z,17.6
2018-09-26T06:05:13.361Z,17.6
2018-09-26T06:06:04.122Z,17.6
2018-09-26T06:06:53.484Z,17.6
2018-09-26T06:07:43.181Z,17.6
2018-09-26T06:08:32.182Z,17.6
2018-09-26T06:09:23.867Z,17.6
2018-09-26T06:10:14.188Z,17.6
2018-09-26T06:11:04.009Z,17.6
2018-09-26T06:11:53.699Z,17.6
2018-09-26T06:12:45.221Z,17.6
2018-09-26T06:13:34.698Z,17.6
2018-09-26T06:14:24.271Z,17.6
2018-09-26T06:15:14.779Z,17.6
2018-09-26T06:16:04.711Z,17.6
2018-09-26T06:16:55.246Z,17.6
2018-09-26T06:17:44.326Z,17.6
2018-09-26T06:18:35.077Z,17.6
2018-09-26T06:19:24.281Z,17.6
2018-09-26T06:20:13.818Z,17.6
2018-09-26T06:21:03.491Z,17.6
2018-09-26T06:21:55.251Z,17.6
2018-09-26T06:22:44.568Z,17.6
2018-09-26T06:23:35.060Z,17.6
2018-09-26T06:24:24.677Z,17.6
2018-09-26T06:25:14.561Z,17.6
2018-09-26T06:26:04.918Z,17.6
2018-09-26T06:26:54.165Z,17.6
2018-09-26T06:27:45.535Z,17.6
2018-09-26T06:28:33.899Z,17.6
2018-09-26T06:29:25.342Z,17.6
2018-09-26T06:30:15.172Z,17.6
2018-09-26T06:31:05.207Z,17.6
2018-09-26T06:31:54.642Z,17.6
2018-09-26T06:32:45.251Z,17.6
2018-09-26T06:33:35.884Z,17.6
2018-09-26T06:34:25.166Z,17.6
2018-09-26T06:35:15.656Z,17.6
2018-09-26T06:36:06.340Z,17.6
2018-09-26T06:36:55.315Z,17.7
2018-09-26T06:37:46.144Z,17.6
2018-09-26T06:38:35.693Z,17.6
2018-09-26T06:39:26.359Z,17.6
2018-09-26T06:40:16.786Z,17.6
2018-09-26T06:41:05.049Z,17.6
2018-09-26T06:41:56.249Z,17.6
2018-09-26T06:42:45.766Z,17.6
2018-09-26T06:43:36.609Z,17.6
2018-09-26T06:44:25.894Z,17.6
2018-09-26T06:45:16.974Z,17.6
2018-09-26T06:46:06.671Z,17.6
2018-09-26T06:46:56.896Z,17.6
2018-09-26T06:47:47.041Z,17.6
2018-09-26T06:48:36.129Z,17.6
2018-09-26T06:49:27.021Z,17.6
2018-09-26T06:50:17.403Z,17.6
2018-09-26T06:51:07.143Z,17.6
2018-09-26T06:51:56.748Z,17.7
2018-09-26T06:52:47.345Z,17.6
2018-09-26T06:53:37.863Z,17.6
2018-09-26T06:54:27.664Z,17.6
2018-09-26T06:55:17.651Z,17.6
2018-09-26T06:56:07.491Z,17.7
2018-09-26T06:56:56.763Z,17.7
2018-09-26T06:57:47.403Z,17.6
2018-09-26T06:58:37.641Z,17.7
2018-09-26T06:59:27.528Z,17.7
2018-09-26T07:00:19.312Z,17.7
2018-09-26T07:01:07.603Z,17.7
2018-09-26T07:01:57.890Z,17.7
2018-09-26T07:02:47.740Z,17.7
2018-09-26T07:03:37.716Z,17.7
2018-09-26T07:04:28.052Z,17.7
2018-09-26T07:05:18.235Z,17.7
2018-09-26T07:06:07.961Z,17.7
2018-09-26T07:06:58.283Z,17.7
2018-09-26T07:07:48.282Z,17.7
2018-09-26T07:08:37.831Z,17.7
2018-09-26T07:09:28.407Z,17.7
2018-09-26T07:10:18.300Z,17.7
2018-09-26T07:11:09.103Z,17.8
2018-09-26T07:11:57.778Z,17.7
2018-09-26T07:12:48.387Z,17.8
2018-09-26T07:13:39.079Z,17.8
2018-09-26T07:14:28.813Z,17.8
2018-09-26T07:15:19.493Z,17.8
2018-09-26T07:16:09.189Z,17.8
2018-09-26T07:16:57.708Z,17.8
2018-09-26T07:17:49.618Z,17.8
2018-09-26T07:18:39.414Z,17.8
2018-09-26T07:19:28.668Z,17.8
2018-09-26T07:20:19.259Z,17.8
2018-09-26T07:21:09.619Z,17.8
2018-09-26T07:21:59.115Z,17.8
2018-09-26T07:22:48.897Z,17.8
2018-09-26T07:23:39.258Z,17.8
2018-09-26T07:24:29.077Z,17.8
2018-09-26T07:25:19.899Z,17.8
2018-09-26T07:26:09.122Z,17.8
2018-09-26T07:26:59.600Z,17.8
2018-09-26T07:27:50.381Z,17.8
2018-09-26T07:28:39.353Z,17.8
2018-09-26T07:29:30.116Z,17.8
2018-09-26T07:30:19.906Z,17.8
2018-09-26T07:31:10.336Z,17.8
2018-09-26T07:32:00.139Z,17.8
2018-09-26T07:32:50.522Z,17.8
2018-09-26T07:33:39.962Z,17.8
2018-09-26T07:34:30.586Z,17.8
2018-09-26T07:35:20.349Z,17.8
2018-09-26T07:36:10.195Z,17.8
2018-09-26T07:37:01.031Z,17.8
2018-09-26T07:37:50.542Z,17.8
2018-09-26T07:38:41.456Z,17.8
2018-09-26T07:39:30.873Z,17.8
2018-09-26T07:40:20.795Z,17.8
2018-09-26T07:41:10.197Z,17.8
2018-09-26T07:42:00.853Z,17.8
2018-09-26T07:42:48.999Z,17.8
2018-09-26T07:43:40.785Z,17.8
2018-09-26T07:44:30.109Z,17.8
2018-09-26T07:45:20.074Z,17.8
2018-09-26T07:46:09.227Z,17.8
2018-09-26T07:47:00.543Z,17.8
2018-09-26T07:47:49.945Z,17.8
2018-09-26T07:48:39.927Z,17.8
2018-09-26T07:49:29.843Z,17.8
2018-09-26T07:50:19.911Z,17.8
2018-09-26T07:51:09.734Z,17.8
2018-09-26T07:51:59.590Z,17.8
2018-09-26T07:52:50.058Z,17.8
2018-09-26T07:53:39.721Z,17.8
2018-09-26T07:54:30.318Z,17.8
2018-09-26T07:55:20.645Z,17.8
2018-09-26T07:56:10.281Z,17.8
2018-09-26T07:57:00.387Z,17.8
2018-09-26T07:57:50.709Z,17.8
2018-09-26T07:58:40.834Z,17.8
2018-09-26T07:59:31.933Z,17.8
2018-09-26T08:00:21.963Z,17.8
2018-09-26T08:01:12.549Z,17.8
2018-09-26T08:02:01.505Z,17.8
2018-09-26T08:02:51.931Z,17.8
2018-09-26T08:03:41.583Z,17.8
2018-09-26T08:04:33.137Z,17.8
2018-09-26T08:05:21.435Z,17.8
2018-09-26T08:06:13.066Z,17.8
2018-09-26T08:07:01.835Z,17.8
2018-09-26T08:07:52.285Z,17.8
2018-09-26T08:08:41.780Z,17.8
2018-09-26T08:09:31.566Z,17.8
2018-09-26T08:10:22.431Z,17.8
2018-09-26T08:11:13.193Z,17.9
2018-09-26T08:12:03.778Z,17.8
2018-09-26T08:12:53.141Z,17.8
2018-09-26T08:13:43.177Z,17.8
2018-09-26T08:14:33.726Z,17.8
2018-09-26T08:15:22.571Z,17.8
2018-09-26T08:16:13.105Z,17.8
2018-09-26T08:17:02.949Z,17.8
2018-09-26T08:17:52.909Z,17.8
2018-09-26T08:18:45.668Z,17.8
2018-09-26T08:19:32.779Z,17.8
2018-09-26T08:20:23.409Z,17.9
2018-09-26T08:21:13.279Z,17.9
2018-09-26T08:22:03.658Z,17.9
2018-09-26T08:22:53.705Z,17.9
2018-09-26T08:23:44.636Z,17.9
2018-09-26T08:24:34.818Z,17.9
2018-09-26T08:25:22.913Z,17.9
2018-09-26T08:26:12.747Z,17.9
2018-09-26T08:27:04.706Z,17.9
2018-09-26T08:27:53.684Z,17.9
2018-09-26T08:28:43.983Z,17.9
2018-09-26T08:29:33.802Z,17.9
2018-09-26T08:30:24.501Z,17.9
2018-09-26T08:31:14.230Z,17.9
2018-09-26T08:32:04.241Z,17.9
2018-09-26T08:32:54.306Z,17.9
2018-09-26T08:33:44.127Z,17.9
2018-09-26T08:34:34.822Z,17.9
2018-09-26T08:35:25.315Z,17.9
2018-09-26T08:36:14.346Z,17.9
2018-09-26T08:37:05.156Z,17.9
2018-09-26T08:37:53.919Z,17.9
2018-09-26T08:38:44.617Z,17.9
2018-09-26T08:39:35.865Z,17.9
2018-09-26T08:40:25.160Z,17.9
2018-09-26T08:41:15.769Z,17.9
2018-09-26T08:42:05.298Z,17.9
2018-09-26T08:42:54.564Z,17.9
2018-09-26T08:43:44.989Z,17.9
2018-09-26T08:44:35.432Z,17.9
2018-09-26T08:45:25.799Z,17.9
2018-09-26T08:46:15.520Z,17.9
2018-09-26T08:47:05.635Z,17.9
2018-09-26T08:47:55.417Z,17.9
2018-09-26T08:48:46.322Z,17.9
2018-09-26T08:49:35.882Z,17.9
2018-09-26T08:50:26.292Z,17.9
2018-09-26T08:51:15.523Z,17.9
2018-09-26T08:52:05.267Z,17.9
2018-09-26T08:52:56.391Z,17.9
2018-09-26T08:53:47.771Z,17.9
2018-09-26T08:54:36.741Z,17.9
2018-09-26T08:55:26.281Z,17.9
2018-09-26T08:56:16.828Z,17.9
2018-09-26T08:57:05.891Z,17.9
2018-09-26T08:57:56.173Z,17.9
2018-09-26T08:58:46.186Z,17.9
2018-09-26T08:59:37.735Z,17.9
2018-09-26T09:00:26.513Z,17.9
2018-09-26T09:01:16.214Z,17.9
2018-09-26T09:02:06.419Z,17.9
2018-09-26T09:02:55.798Z,17.9
2018-09-26T09:03:47.107Z,17.9
2018-09-26T09:04:37.276Z,17.9
2018-09-26T09:05:27.215Z,18
2018-09-26T09:06:19.104Z,17.9
2018-09-26T09:07:06.836Z,18
2018-09-26T09:07:57.720Z,17.9
2018-09-26T09:08:47.280Z,17.9
2018-09-26T09:09:37.963Z,17.9
2018-09-26T09:10:27.640Z,18
2018-09-26T09:11:17.743Z,18
2018-09-26T09:12:07.170Z,18
2018-09-26T09:12:57.278Z,18
2018-09-26T09:13:47.824Z,18
2018-09-26T09:14:40.955Z,18
2018-09-26T09:15:28.716Z,18
2018-09-26T09:16:17.077Z,18
2018-09-26T09:17:07.450Z,18
2018-09-26T09:17:58.631Z,18
2018-09-26T09:18:48.070Z,18
2018-09-26T09:19:37.847Z,18
2018-09-26T09:20:28.562Z,18
2018-09-26T09:21:18.118Z,18
2018-09-26T09:22:07.907Z,18
2018-09-26T09:38:56.212Z,18
2018-09-26T09:39:45.936Z,18.1
2018-09-26T09:40:35.666Z,18
2018-09-26T09:41:25.192Z,18.1
2018-09-26T09:42:15.144Z,18
2018-09-26T09:43:05.600Z,18
2018-09-26T09:43:57.458Z,18.1
2018-09-26T09:44:46.289Z,18
2018-09-26T09:45:35.996Z,18
2018-09-26T09:46:25.836Z,18
2018-09-26T09:47:15.956Z,18.1
2018-09-26T09:48:06.514Z,18
2018-09-26T09:48:57.014Z,18.1
2018-09-26T09:49:46.248Z,18.1
2018-09-26T09:50:36.436Z,18.1
2018-09-26T09:51:27.175Z,18.1
2018-09-26T09:52:15.918Z,18.1
2018-09-26T09:53:06.621Z,18.1
2018-09-26T09:53:56.598Z,18.1
2018-09-26T09:54:46.700Z,18.1
2018-09-26T09:55:37.013Z,18.1
2018-09-26T09:56:27.790Z,18.1
2018-09-26T09:57:16.577Z,18.1
2018-09-26T09:58:07.286Z,18.1
2018-09-26T09:58:57.027Z,18.1
2018-09-26T09:59:47.110Z,18.1
2018-09-26T10:00:36.580Z,18.1
2018-09-26T10:01:27.825Z,18.1
2018-09-26T10:02:19.148Z,18.1
2018-09-26T10:03:10.167Z,18.1
2018-09-26T10:03:58.689Z,18.1
2018-09-26T10:04:47.397Z,18.1
2018-09-26T10:05:37.182Z,18.1
2018-09-26T10:06:27.257Z,18.1
2018-09-26T10:07:17.882Z,18.1
2018-09-26T10:08:07.582Z,18.1
2018-09-26T10:08:58.709Z,18.1
2018-09-26T10:09:47.860Z,18.1
2018-09-26T10:10:37.293Z,18.1
2018-09-26T10:11:28.196Z,18.1
2018-09-26T10:12:18.282Z,18.1
2018-09-26T10:13:07.985Z,18.1
2018-09-26T10:13:57.307Z,18.1
2018-09-26T10:14:48.426Z,18.1
2018-09-26T10:15:39.404Z,18.1
2018-09-26T10:16:28.584Z,18.1
2018-09-26T10:17:17.809Z,18.1
2018-09-26T10:18:08.664Z,18.1
2018-09-26T10:18:57.921Z,18.1
2018-09-26T10:19:48.309Z,18.1
2018-09-26T10:20:38.868Z,18.1
2018-09-26T10:21:28.777Z,18.1
2018-09-26T10:22:19.034Z,18.1
2018-09-26T10:23:08.225Z,18.1
2018-09-26T10:23:58.846Z,18.1
2018-09-26T10:24:49.488Z,18.1
2018-09-26T10:25:39.519Z,18.1
2018-09-26T10:26:30.516Z,18.1
2018-09-26T10:27:19.678Z,18.1
2018-09-26T10:28:08.891Z,18.1
2018-09-26T10:28:59.219Z,18.1
2018-09-26T10:29:49.373Z,18.1
2018-09-26T10:30:39.176Z,18.1
2018-09-26T10:31:29.709Z,18.1
2018-09-26T10:32:19.525Z,18.1
2018-09-26T10:33:10.165Z,18.1
2018-09-26T10:34:00.212Z,18.1
2018-09-26T10:34:49.303Z,18.1
2018-09-26T10:35:40.382Z,18.1
2018-09-26T10:36:30.388Z,18.1
2018-09-26T10:37:19.953Z,18.1
2018-09-26T10:38:10.633Z,18.1
2018-09-26T10:39:00.474Z,18.1
2018-09-26T10:39:50.163Z,18.1
2018-09-26T10:40:40.118Z,18.1
2018-09-26T10:41:30.150Z,18.1
2018-09-26T10:42:19.903Z,18.1
2018-09-26T10:43:09.978Z,18.1
2018-09-26T10:44:00.623Z,18.1
2018-09-26T10:44:51.253Z,18.1
2018-09-26T10:45:40.750Z,18.1
2018-09-26T10:46:31.505Z,18.1
2018-09-26T10:47:20.588Z,18.1
2018-09-26T10:48:10.360Z,18.1
2018-09-26T10:49:00.818Z,18.1
2018-09-26T10:49:50.728Z,18.1
2018-09-26T10:50:41.112Z,18.1
2018-09-26T10:51:31.428Z,18.1
2018-09-26T10:52:21.197Z,18.1
2018-09-26T10:53:10.543Z,18.1
2018-09-26T10:54:00.185Z,18.1
2018-09-26T10:54:51.354Z,18.1
2018-09-26T10:55:41.688Z,18.2
2018-09-26T10:56:32.960Z,18.2
2018-09-26T10:57:20.787Z,18.2
2018-09-26T10:58:11.832Z,18.1
2018-09-26T10:59:01.626Z,18.2
2018-09-26T10:59:51.468Z,18.1
2018-09-26T11:00:42.291Z,18.1
2018-09-26T11:01:32.184Z,18.2
2018-09-26T11:02:23.334Z,18.2
2018-09-26T11:03:11.476Z,18.1
2018-09-26T11:04:01.754Z,18.2
2018-09-26T11:04:51.855Z,18.2
2018-09-26T11:05:41.957Z,18.2
2018-09-26T11:06:32.285Z,18.2
2018-09-26T11:07:21.687Z,18.2
2018-09-26T11:08:13.059Z,18.2
2018-09-26T11:09:01.917Z,18.2
2018-09-26T11:09:52.216Z,18.2
2018-09-26T11:10:42.081Z,18.2
2018-09-26T11:11:32.009Z,18.2
2018-09-26T11:12:23.156Z,18.2
2018-09-26T11:13:13.034Z,18.2
2018-09-26T11:14:01.625Z,18.2
2018-09-26T11:14:51.454Z,18.2
2018-09-26T11:15:43.298Z,18.2
2018-09-26T11:16:33.836Z,18.2
2018-09-26T11:17:22.433Z,18.2
2018-09-26T11:18:13.458Z,18.2
2018-09-26T11:19:04.396Z,18.2
2018-09-26T11:19:52.913Z,18.2
2018-09-26T11:20:44.223Z,18.2
2018-09-26T11:21:32.239Z,18.2
2018-09-26T11:22:24.313Z,18.2
2018-09-26T11:23:13.556Z,18.2
2018-09-26T11:24:03.547Z,18.2
2018-09-26T11:24:53.600Z,18.2
2018-09-26T11:25:43.408Z,18.2
2018-09-26T11:26:34.685Z,18.2
2018-09-26T11:27:23.826Z,18.2
2018-09-26T11:28:14.134Z,18.2
2018-09-26T11:29:03.645Z,18.2
2018-09-26T11:29:53.995Z,18.2
2018-09-26T11:30:44.003Z,18.2
2018-09-26T11:31:34.411Z,18.2
2018-09-26T11:32:26.522Z,18.2
2018-09-26T11:33:15.121Z,18.2
2018-09-26T11:34:04.667Z,18.2
2018-09-26T11:34:54.097Z,18.2
2018-09-26T11:35:43.291Z,18.2
2018-09-26T11:36:34.242Z,18.2
2018-09-26T11:37:24.507Z,18.2
2018-09-26T11:38:15.388Z,18.2
2018-09-26T11:39:04.894Z,18.3
2018-09-26T11:39:54.749Z,18.3
2018-09-26T11:40:44.760Z,18.2
2018-09-26T11:41:34.624Z,18.3
2018-09-26T11:42:24.731Z,18.3
2018-09-26T11:43:15.179Z,18.2
2018-09-26T11:44:05.348Z,18.2
2018-09-26T11:44:56.743Z,18.2
2018-09-26T11:45:45.392Z,18.3
2018-09-26T11:46:35.439Z,18.3
2018-09-26T11:47:23.637Z,18.3
2018-09-26T11:48:14.799Z,18.3
2018-09-26T11:49:05.068Z,18.3
2018-09-26T11:49:55.184Z,18.3
2018-09-26T11:50:44.827Z,18.3
2018-09-26T11:51:34.981Z,18.3
2018-09-26T11:52:25.596Z,18.2
2018-09-26T11:53:15.651Z,18.3
2018-09-26T11:54:06.259Z,18.3
2018-09-26T11:54:54.859Z,18.2
2018-09-26T11:55:44.381Z,18.3
2018-09-26T11:56:36.391Z,18.2
2018-09-26T11:57:24.172Z,18.3
2018-09-26T11:58:16.854Z,18.3
2018-09-26T11:59:05.026Z,18.3
2018-09-26T11:59:55.061Z,18.3